sensor_id;sensor_type;location;lat;lon;timestamp;P1;durP1;ratioP1;P2;durP2;ratioP2
64885;SDS011;51514;52.206;5.114;2023-09-12T00:00:53;23.15;;;17.20;;
64885;SDS011;51514;52.206;5.114;2023-09-12T00:03:19;20.58;;;16.75;;
64885;SDS011;51514;52.206;5.114;2023-09-12T00:05:53;17.95;;;14.73;;
64885;SDS011;51514;52.206;5.114;2023-09-12T00:08:19;18.02;;;13.35;;
64885;SDS011;51514;52.206;5.114;2023-09-12T00:10:45;16.52;;;13.38;;
64885;SDS011;51514;52.206;5.114;2023-09-12T00:13:10;16.05;;;12.55;;
64885;SDS011;51514;52.206;5.114;2023-09-12T00:15:36;15.32;;;12.10;;
64885;SDS011;51514;52.206;5.114;2023-09-12T00:18:01;14.68;;;11.70;;
64885;SDS011;51514;52.206;5.114;2023-09-12T00:20:27;14.00;;;11.52;;
64885;SDS011;51514;52.206;5.114;2023-09-12T00:22:52;13.80;;;10.88;;
64885;SDS011;51514;52.206;5.114;2023-09-12T00:25:19;13.15;;;11.10;;
64885;SDS011;51514;52.206;5.114;2023-09-12T00:27:45;12.52;;;10.60;;
64885;SDS011;51514;52.206;5.114;2023-09-12T00:30:11;14.07;;;11.27;;
64885;SDS011;51514;52.206;5.114;2023-09-12T00:32:36;13.20;;;10.82;;
64885;SDS011;51514;52.206;5.114;2023-09-12T00:35:02;14.75;;;10.95;;
64885;SDS011;51514;52.206;5.114;2023-09-12T00:37:28;14.48;;;10.38;;
64885;SDS011;51514;52.206;5.114;2023-09-12T00:39:53;12.98;;;10.55;;
64885;SDS011;51514;52.206;5.114;2023-09-12T00:42:18;14.52;;;10.20;;
64885;SDS011;51514;52.206;5.114;2023-09-12T00:44:44;13.15;;;10.02;;
64885;SDS011;51514;52.206;5.114;2023-09-12T00:47:09;11.95;;;10.18;;
64885;SDS011;51514;52.206;5.114;2023-09-12T00:49:36;12.80;;;10.77;;
64885;SDS011;51514;52.206;5.114;2023-09-12T00:52:03;12.45;;;10.43;;
64885;SDS011;51514;52.206;5.114;2023-09-12T00:54:29;15.07;;;10.63;;
64885;SDS011;51514;52.206;5.114;2023-09-12T00:56:54;12.35;;;9.25;;
64885;SDS011;51514;52.206;5.114;2023-09-12T00:59:20;12.60;;;9.25;;
64885;SDS011;51514;52.206;5.114;2023-09-12T01:01:46;9.73;;;8.48;;
64885;SDS011;51514;52.206;5.114;2023-09-12T01:04:12;8.68;;;7.78;;
64885;SDS011;51514;52.206;5.114;2023-09-12T01:06:38;10.25;;;7.72;;
64885;SDS011;51514;52.206;5.114;2023-09-12T01:09:03;9.10;;;7.93;;
64885;SDS011;51514;52.206;5.114;2023-09-12T01:11:29;10.45;;;8.23;;
64885;SDS011;51514;52.206;5.114;2023-09-12T01:13:56;9.85;;;7.85;;
64885;SDS011;51514;52.206;5.114;2023-09-12T01:16:21;10.75;;;8.30;;
64885;SDS011;51514;52.206;5.114;2023-09-12T01:18:46;7.90;;;7.10;;
64885;SDS011;51514;52.206;5.114;2023-09-12T01:29:14;7.85;;;6.00;;
64885;SDS011;51514;52.206;5.114;2023-09-12T01:31:41;7.35;;;5.68;;
64885;SDS011;51514;52.206;5.114;2023-09-12T01:34:10;6.82;;;6.13;;
64885;SDS011;51514;52.206;5.114;2023-09-12T01:36:36;8.07;;;5.95;;
64885;SDS011;51514;52.206;5.114;2023-09-12T01:39:01;8.23;;;6.32;;
64885;SDS011;51514;52.206;5.114;2023-09-12T01:41:27;7.20;;;5.65;;
64885;SDS011;51514;52.206;5.114;2023-09-12T01:43:56;6.60;;;5.38;;
64885;SDS011;51514;52.206;5.114;2023-09-12T01:46:22;7.15;;;5.68;;
64885;SDS011;51514;52.206;5.114;2023-09-12T01:48:48;6.20;;;5.03;;
64885;SDS011;51514;52.206;5.114;2023-09-12T01:51:16;4.95;;;4.30;;
64885;SDS011;51514;52.206;5.114;2023-09-12T01:53:44;6.90;;;4.78;;
64885;SDS011;51514;52.206;5.114;2023-09-12T01:56:10;4.68;;;4.18;;
64885;SDS011;51514;52.206;5.114;2023-09-12T01:58:37;5.68;;;4.13;;
64885;SDS011;51514;52.206;5.114;2023-09-12T02:01:03;5.28;;;4.28;;
64885;SDS011;51514;52.206;5.114;2023-09-12T02:03:28;4.97;;;3.70;;
64885;SDS011;51514;52.206;5.114;2023-09-12T02:05:54;9.73;;;3.42;;
64885;SDS011;51514;52.206;5.114;2023-09-12T02:08:19;5.45;;;3.70;;
64885;SDS011;51514;52.206;5.114;2023-09-12T02:10:44;7.35;;;3.65;;
64885;SDS011;51514;52.206;5.114;2023-09-12T02:13:10;5.15;;;4.35;;
64885;SDS011;51514;52.206;5.114;2023-09-12T02:15:35;4.18;;;3.60;;
64885;SDS011;51514;52.206;5.114;2023-09-12T02:18:00;7.47;;;4.15;;
64885;SDS011;51514;52.206;5.114;2023-09-12T02:20:26;5.82;;;4.45;;
64885;SDS011;51514;52.206;5.114;2023-09-12T02:22:51;5.85;;;4.03;;
64885;SDS011;51514;52.206;5.114;2023-09-12T02:25:17;4.75;;;3.80;;
64885;SDS011;51514;52.206;5.114;2023-09-12T02:27:42;5.05;;;4.03;;
64885;SDS011;51514;52.206;5.114;2023-09-12T02:30:07;4.30;;;3.85;;
64885;SDS011;51514;52.206;5.114;2023-09-12T02:32:33;5.00;;;4.07;;
64885;SDS011;51514;52.206;5.114;2023-09-12T02:34:58;4.68;;;4.13;;
64885;SDS011;51514;52.206;5.114;2023-09-12T02:37:24;4.97;;;3.85;;
64885;SDS011;51514;52.206;5.114;2023-09-12T02:39:49;5.22;;;4.63;;
64885;SDS011;51514;52.206;5.114;2023-09-12T02:42:15;4.85;;;4.03;;
64885;SDS011;51514;52.206;5.114;2023-09-12T02:44:40;7.70;;;4.70;;
64885;SDS011;51514;52.206;5.114;2023-09-12T02:47:05;7.07;;;4.97;;
64885;SDS011;51514;52.206;5.114;2023-09-12T02:49:31;8.27;;;5.70;;
64885;SDS011;51514;52.206;5.114;2023-09-12T02:51:56;5.88;;;4.15;;
64885;SDS011;51514;52.206;5.114;2023-09-12T02:54:22;7.00;;;4.50;;
64885;SDS011;51514;52.206;5.114;2023-09-12T02:56:47;5.22;;;3.45;;
64885;SDS011;51514;52.206;5.114;2023-09-12T02:59:12;7.10;;;4.00;;
64885;SDS011;51514;52.206;5.114;2023-09-12T03:01:38;5.60;;;3.67;;
64885;SDS011;51514;52.206;5.114;2023-09-12T03:04:03;4.28;;;3.08;;
64885;SDS011;51514;52.206;5.114;2023-09-12T03:06:28;3.78;;;2.55;;
64885;SDS011;51514;52.206;5.114;2023-09-12T03:08:55;3.03;;;2.30;;
64885;SDS011;51514;52.206;5.114;2023-09-12T03:11:20;5.05;;;2.65;;
64885;SDS011;51514;52.206;5.114;2023-09-12T03:13:45;3.90;;;2.58;;
64885;SDS011;51514;52.206;5.114;2023-09-12T03:16:11;3.33;;;2.42;;
64885;SDS011;51514;52.206;5.114;2023-09-12T03:18:37;3.38;;;2.25;;
64885;SDS011;51514;52.206;5.114;2023-09-12T03:21:03;3.33;;;2.10;;
64885;SDS011;51514;52.206;5.114;2023-09-12T03:23:28;2.38;;;1.80;;
64885;SDS011;51514;52.206;5.114;2023-09-12T03:25:54;3.78;;;1.90;;
64885;SDS011;51514;52.206;5.114;2023-09-12T03:28:19;2.60;;;1.98;;
64885;SDS011;51514;52.206;5.114;2023-09-12T03:30:45;3.50;;;2.17;;
64885;SDS011;51514;52.206;5.114;2023-09-12T03:33:11;2.50;;;2.05;;
64885;SDS011;51514;52.206;5.114;2023-09-12T03:35:37;3.00;;;2.10;;
64885;SDS011;51514;52.206;5.114;2023-09-12T03:38:02;2.78;;;1.80;;
64885;SDS011;51514;52.206;5.114;2023-09-12T03:40:31;3.33;;;2.08;;
64885;SDS011;51514;52.206;5.114;2023-09-12T03:42:56;3.13;;;1.90;;
64885;SDS011;51514;52.206;5.114;2023-09-12T03:45:22;2.88;;;1.88;;
64885;SDS011;51514;52.206;5.114;2023-09-12T03:47:48;2.17;;;1.88;;
64885;SDS011;51514;52.206;5.114;2023-09-12T03:50:13;2.08;;;1.73;;
64885;SDS011;51514;52.206;5.114;2023-09-12T03:52:39;2.72;;;2.15;;
64885;SDS011;51514;52.206;5.114;2023-09-12T03:55:05;4.05;;;1.98;;
64885;SDS011;51514;52.206;5.114;2023-09-12T03:57:30;3.47;;;2.15;;
64885;SDS011;51514;52.206;5.114;2023-09-12T03:59:56;4.32;;;1.83;;
64885;SDS011;51514;52.206;5.114;2023-09-12T04:02:22;2.05;;;1.80;;
64885;SDS011;51514;52.206;5.114;2023-09-12T04:04:48;2.58;;;1.70;;
64885;SDS011;51514;52.206;5.114;2023-09-12T04:07:13;2.13;;;1.75;;
64885;SDS011;51514;52.206;5.114;2023-09-12T04:09:38;2.60;;;1.90;;
64885;SDS011;51514;52.206;5.114;2023-09-12T04:12:04;2.08;;;1.80;;
64885;SDS011;51514;52.206;5.114;2023-09-12T04:14:31;2.47;;;1.90;;
64885;SDS011;51514;52.206;5.114;2023-09-12T04:16:57;2.30;;;1.77;;
64885;SDS011;51514;52.206;5.114;2023-09-12T04:19:22;2.70;;;1.90;;
64885;SDS011;51514;52.206;5.114;2023-09-12T04:21:47;2.55;;;1.90;;
64885;SDS011;51514;52.206;5.114;2023-09-12T04:24:13;1.90;;;1.70;;
64885;SDS011;51514;52.206;5.114;2023-09-12T04:26:38;3.13;;;2.17;;
64885;SDS011;51514;52.206;5.114;2023-09-12T04:29:03;2.88;;;1.92;;
64885;SDS011;51514;52.206;5.114;2023-09-12T04:31:29;2.88;;;2.00;;
64885;SDS011;51514;52.206;5.114;2023-09-12T04:33:54;2.97;;;2.20;;
64885;SDS011;51514;52.206;5.114;2023-09-12T04:36:20;2.35;;;1.95;;
64885;SDS011;51514;52.206;5.114;2023-09-12T04:38:46;3.03;;;2.40;;
64885;SDS011;51514;52.206;5.114;2023-09-12T04:41:11;2.88;;;1.90;;
64885;SDS011;51514;52.206;5.114;2023-09-12T04:43:40;2.15;;;1.83;;
64885;SDS011;51514;52.206;5.114;2023-09-12T04:46:06;2.45;;;2.03;;
64885;SDS011;51514;52.206;5.114;2023-09-12T04:48:31;2.70;;;2.00;;
64885;SDS011;51514;52.206;5.114;2023-09-12T04:50:56;2.78;;;1.98;;
64885;SDS011;51514;52.206;5.114;2023-09-12T04:53:22;2.15;;;1.90;;
64885;SDS011;51514;52.206;5.114;2023-09-12T04:55:47;2.15;;;1.88;;
64885;SDS011;51514;52.206;5.114;2023-09-12T04:58:13;3.17;;;2.15;;
64885;SDS011;51514;52.206;5.114;2023-09-12T05:00:39;2.75;;;2.10;;
64885;SDS011;51514;52.206;5.114;2023-09-12T05:03:05;2.58;;;2.17;;
64885;SDS011;51514;52.206;5.114;2023-09-12T05:05:30;4.38;;;2.25;;
64885;SDS011;51514;52.206;5.114;2023-09-12T05:07:55;3.08;;;2.15;;
64885;SDS011;51514;52.206;5.114;2023-09-12T05:10:21;2.83;;;2.00;;
64885;SDS011;51514;52.206;5.114;2023-09-12T05:12:46;2.83;;;2.22;;
64885;SDS011;51514;52.206;5.114;2023-09-12T05:15:11;2.75;;;2.20;;
64885;SDS011;51514;52.206;5.114;2023-09-12T05:17:37;2.85;;;2.17;;
64885;SDS011;51514;52.206;5.114;2023-09-12T05:20:03;2.78;;;2.30;;
64885;SDS011;51514;52.206;5.114;2023-09-12T05:22:31;2.03;;;1.80;;
64885;SDS011;51514;52.206;5.114;2023-09-12T05:24:57;2.30;;;2.03;;
64885;SDS011;51514;52.206;5.114;2023-09-12T05:27:22;2.05;;;1.77;;
64885;SDS011;51514;52.206;5.114;2023-09-12T05:29:48;2.53;;;1.90;;
64885;SDS011;51514;52.206;5.114;2023-09-12T05:32:13;3.03;;;2.40;;
64885;SDS011;51514;52.206;5.114;2023-09-12T05:34:40;2.78;;;2.20;;
64885;SDS011;51514;52.206;5.114;2023-09-12T05:37:06;2.83;;;2.20;;
64885;SDS011;51514;52.206;5.114;2023-09-12T05:39:31;2.85;;;2.38;;
64885;SDS011;51514;52.206;5.114;2023-09-12T05:41:57;2.70;;;2.20;;
64885;SDS011;51514;52.206;5.114;2023-09-12T05:44:22;2.80;;;2.10;;
64885;SDS011;51514;52.206;5.114;2023-09-12T05:46:48;2.67;;;2.20;;
64885;SDS011;51514;52.206;5.114;2023-09-12T05:49:16;2.53;;;1.95;;
64885;SDS011;51514;52.206;5.114;2023-09-12T05:51:41;2.72;;;2.13;;
64885;SDS011;51514;52.206;5.114;2023-09-12T05:54:10;3.17;;;2.30;;
64885;SDS011;51514;52.206;5.114;2023-09-12T05:56:38;3.13;;;2.08;;
64885;SDS011;51514;52.206;5.114;2023-09-12T05:59:04;2.65;;;2.10;;
64885;SDS011;51514;52.206;5.114;2023-09-12T06:01:30;2.85;;;2.30;;
64885;SDS011;51514;52.206;5.114;2023-09-12T06:03:56;4.30;;;2.20;;
64885;SDS011;51514;52.206;5.114;2023-09-12T06:06:21;3.13;;;2.30;;
64885;SDS011;51514;52.206;5.114;2023-09-12T06:08:47;2.63;;;2.30;;
64885;SDS011;51514;52.206;5.114;2023-09-12T06:11:13;4.70;;;2.63;;
64885;SDS011;51514;52.206;5.114;2023-09-12T06:13:38;3.10;;;2.47;;
64885;SDS011;51514;52.206;5.114;2023-09-12T06:16:04;3.17;;;2.47;;
64885;SDS011;51514;52.206;5.114;2023-09-12T06:18:30;3.20;;;2.53;;
64885;SDS011;51514;52.206;5.114;2023-09-12T06:20:57;3.70;;;2.70;;
64885;SDS011;51514;52.206;5.114;2023-09-12T06:23:23;3.63;;;2.72;;
64885;SDS011;51514;52.206;5.114;2023-09-12T06:25:49;3.88;;;2.80;;
64885;SDS011;51514;52.206;5.114;2023-09-12T06:28:24;3.05;;;2.40;;
64885;SDS011;51514;52.206;5.114;2023-09-12T06:30:51;3.13;;;2.38;;
64885;SDS011;51514;52.206;5.114;2023-09-12T06:33:16;3.20;;;2.40;;
64885;SDS011;51514;52.206;5.114;2023-09-12T06:35:41;3.22;;;2.45;;
64885;SDS011;51514;52.206;5.114;2023-09-12T06:38:07;3.47;;;2.67;;
64885;SDS011;51514;52.206;5.114;2023-09-12T06:40:32;3.25;;;2.50;;
64885;SDS011;51514;52.206;5.114;2023-09-12T06:42:58;4.93;;;2.50;;
64885;SDS011;51514;52.206;5.114;2023-09-12T06:45:23;3.55;;;2.70;;
64885;SDS011;51514;52.206;5.114;2023-09-12T06:47:48;5.35;;;3.65;;
64885;SDS011;51514;52.206;5.114;2023-09-12T06:50:14;5.65;;;3.22;;
64885;SDS011;51514;52.206;5.114;2023-09-12T06:52:39;6.72;;;3.38;;
64885;SDS011;51514;52.206;5.114;2023-09-12T06:55:05;6.15;;;3.42;;
64885;SDS011;51514;52.206;5.114;2023-09-12T06:57:30;8.95;;;3.47;;
64885;SDS011;51514;52.206;5.114;2023-09-12T06:59:56;9.30;;;4.28;;
64885;SDS011;51514;52.206;5.114;2023-09-12T07:02:21;8.18;;;3.35;;
64885;SDS011;51514;52.206;5.114;2023-09-12T07:04:46;6.80;;;3.65;;
64885;SDS011;51514;52.206;5.114;2023-09-12T07:07:12;7.88;;;4.13;;
64885;SDS011;51514;52.206;5.114;2023-09-12T07:09:37;6.78;;;3.55;;
64885;SDS011;51514;52.206;5.114;2023-09-12T07:12:02;8.88;;;4.30;;
64885;SDS011;51514;52.206;5.114;2023-09-12T07:14:30;8.90;;;4.32;;
64885;SDS011;51514;52.206;5.114;2023-09-12T07:16:56;8.00;;;4.00;;
64885;SDS011;51514;52.206;5.114;2023-09-12T07:19:21;8.02;;;4.85;;
64885;SDS011;51514;52.206;5.114;2023-09-12T07:21:47;6.57;;;4.65;;
64885;SDS011;51514;52.206;5.114;2023-09-12T07:24:12;8.60;;;4.40;;
64885;SDS011;51514;52.206;5.114;2023-09-12T07:26:38;8.55;;;5.25;;
64885;SDS011;51514;52.206;5.114;2023-09-12T07:29:03;8.15;;;4.90;;
64885;SDS011;51514;52.206;5.114;2023-09-12T07:31:30;11.35;;;5.32;;
64885;SDS011;51514;52.206;5.114;2023-09-12T07:33:56;7.45;;;5.40;;
64885;SDS011;51514;52.206;5.114;2023-09-12T07:36:21;8.98;;;5.30;;
64885;SDS011;51514;52.206;5.114;2023-09-12T07:38:46;7.55;;;4.68;;
64885;SDS011;51514;52.206;5.114;2023-09-12T07:41:12;8.50;;;4.50;;
64885;SDS011;51514;52.206;5.114;2023-09-12T07:43:37;10.00;;;5.70;;
64885;SDS011;51514;52.206;5.114;2023-09-12T07:46:03;9.75;;;5.07;;
64885;SDS011;51514;52.206;5.114;2023-09-12T07:48:28;8.85;;;4.90;;
64885;SDS011;51514;52.206;5.114;2023-09-12T07:50:54;10.93;;;5.93;;
64885;SDS011;51514;52.206;5.114;2023-09-12T07:53:19;9.07;;;4.72;;
64885;SDS011;51514;52.206;5.114;2023-09-12T07:55:45;9.50;;;5.38;;
64885;SDS011;51514;52.206;5.114;2023-09-12T07:58:14;11.50;;;6.45;;
64885;SDS011;51514;52.206;5.114;2023-09-12T08:00:41;6.53;;;4.03;;
64885;SDS011;51514;52.206;5.114;2023-09-12T08:03:07;10.07;;;4.97;;
64885;SDS011;51514;52.206;5.114;2023-09-12T08:05:33;8.20;;;5.10;;
64885;SDS011;51514;52.206;5.114;2023-09-12T08:07:58;10.07;;;5.35;;
64885;SDS011;51514;52.206;5.114;2023-09-12T08:10:24;8.48;;;5.05;;
64885;SDS011;51514;52.206;5.114;2023-09-12T08:12:49;8.27;;;4.75;;
64885;SDS011;51514;52.206;5.114;2023-09-12T08:15:15;8.15;;;5.15;;
64885;SDS011;51514;52.206;5.114;2023-09-12T08:17:40;8.82;;;4.85;;
64885;SDS011;51514;52.206;5.114;2023-09-12T08:20:07;6.88;;;4.85;;
64885;SDS011;51514;52.206;5.114;2023-09-12T08:22:35;6.90;;;4.70;;
64885;SDS011;51514;52.206;5.114;2023-09-12T08:25:01;9.02;;;4.75;;
64885;SDS011;51514;52.206;5.114;2023-09-12T08:27:26;7.68;;;5.22;;
64885;SDS011;51514;52.206;5.114;2023-09-12T08:29:52;10.57;;;5.40;;
64885;SDS011;51514;52.206;5.114;2023-09-12T08:32:17;6.88;;;4.68;;
64885;SDS011;51514;52.206;5.114;2023-09-12T08:34:43;8.65;;;5.30;;
64885;SDS011;51514;52.206;5.114;2023-09-12T08:37:08;7.53;;;5.05;;
64885;SDS011;51514;52.206;5.114;2023-09-12T08:39:43;6.25;;;4.60;;
64885;SDS011;51514;52.206;5.114;2023-09-12T08:42:13;6.78;;;4.03;;
64885;SDS011;51514;52.206;5.114;2023-09-12T08:44:41;7.00;;;4.78;;
64885;SDS011;51514;52.206;5.114;2023-09-12T08:47:07;6.72;;;4.50;;
64885;SDS011;51514;52.206;5.114;2023-09-12T08:49:34;8.80;;;5.00;;
64885;SDS011;51514;52.206;5.114;2023-09-12T08:52:01;7.78;;;4.75;;
64885;SDS011;51514;52.206;5.114;2023-09-12T08:54:27;8.32;;;5.53;;
64885;SDS011;51514;52.206;5.114;2023-09-12T08:56:53;6.45;;;4.57;;
64885;SDS011;51514;52.206;5.114;2023-09-12T08:59:19;8.80;;;4.75;;
64885;SDS011;51514;52.206;5.114;2023-09-12T09:01:45;6.43;;;4.53;;
64885;SDS011;51514;52.206;5.114;2023-09-12T09:04:11;9.10;;;5.00;;
64885;SDS011;51514;52.206;5.114;2023-09-12T09:06:37;6.72;;;4.53;;
64885;SDS011;51514;52.206;5.114;2023-09-12T09:09:05;6.97;;;4.75;;
64885;SDS011;51514;52.206;5.114;2023-09-12T09:11:32;7.40;;;4.63;;
64885;SDS011;51514;52.206;5.114;2023-09-12T09:14:00;6.88;;;4.65;;
64885;SDS011;51514;52.206;5.114;2023-09-12T09:16:27;7.40;;;5.35;;
64885;SDS011;51514;52.206;5.114;2023-09-12T09:18:54;7.05;;;5.00;;
64885;SDS011;51514;52.206;5.114;2023-09-12T09:21:34;8.50;;;5.47;;
64885;SDS011;51514;52.206;5.114;2023-09-12T09:24:01;6.93;;;4.72;;
64885;SDS011;51514;52.206;5.114;2023-09-12T09:26:43;7.70;;;4.55;;
64885;SDS011;51514;52.206;5.114;2023-09-12T09:29:17;8.35;;;4.53;;
64885;SDS011;51514;52.206;5.114;2023-09-12T09:31:45;6.68;;;4.75;;
64885;SDS011;51514;52.206;5.114;2023-09-12T09:34:12;6.30;;;4.30;;
64885;SDS011;51514;52.206;5.114;2023-09-12T09:36:49;7.38;;;4.80;;
64885;SDS011;51514;52.206;5.114;2023-09-12T09:39:18;7.28;;;5.13;;
64885;SDS011;51514;52.206;5.114;2023-09-12T09:41:48;8.68;;;5.10;;
64885;SDS011;51514;52.206;5.114;2023-09-12T09:44:15;8.50;;;4.78;;
64885;SDS011;51514;52.206;5.114;2023-09-12T09:46:44;7.00;;;4.65;;
64885;SDS011;51514;52.206;5.114;2023-09-12T09:49:11;7.53;;;5.15;;
64885;SDS011;51514;52.206;5.114;2023-09-12T09:51:42;6.30;;;4.68;;
64885;SDS011;51514;52.206;5.114;2023-09-12T09:54:09;8.63;;;4.78;;
64885;SDS011;51514;52.206;5.114;2023-09-12T09:56:45;7.45;;;5.15;;
64885;SDS011;51514;52.206;5.114;2023-09-12T09:59:15;7.25;;;4.45;;
64885;SDS011;51514;52.206;5.114;2023-09-12T10:01:41;6.72;;;4.80;;
64885;SDS011;51514;52.206;5.114;2023-09-12T10:04:08;8.82;;;4.55;;
64885;SDS011;51514;52.206;5.114;2023-09-12T10:06:35;6.78;;;4.53;;
64885;SDS011;51514;52.206;5.114;2023-09-12T10:09:02;7.20;;;5.10;;
64885;SDS011;51514;52.206;5.114;2023-09-12T10:11:32;6.75;;;4.63;;
64885;SDS011;51514;52.206;5.114;2023-09-12T10:14:00;7.18;;;5.07;;
64885;SDS011;51514;52.206;5.114;2023-09-12T10:19:08;8.48;;;4.78;;
64885;SDS011;51514;52.206;5.114;2023-09-12T10:21:41;9.20;;;5.28;;
64885;SDS011;51514;52.206;5.114;2023-09-12T10:24:24;9.20;;;5.68;;
64885;SDS011;51514;52.206;5.114;2023-09-12T10:26:52;7.60;;;5.18;;
64885;SDS011;51514;52.206;5.114;2023-09-12T10:29:20;6.70;;;5.10;;
64885;SDS011;51514;52.206;5.114;2023-09-12T10:31:46;9.82;;;4.97;;
64885;SDS011;51514;52.206;5.114;2023-09-12T10:34:12;7.68;;;5.60;;
64885;SDS011;51514;52.206;5.114;2023-09-12T10:36:40;8.15;;;5.40;;
64885;SDS011;51514;52.206;5.114;2023-09-12T10:39:06;7.47;;;4.72;;
64885;SDS011;51514;52.206;5.114;2023-09-12T10:41:35;10.02;;;5.82;;
64885;SDS011;51514;52.206;5.114;2023-09-12T10:44:02;9.45;;;5.72;;
64885;SDS011;51514;52.206;5.114;2023-09-12T10:46:35;9.10;;;5.05;;
64885;SDS011;51514;52.206;5.114;2023-09-12T10:49:08;7.55;;;5.30;;
64885;SDS011;51514;52.206;5.114;2023-09-12T10:51:39;10.60;;;5.90;;
64885;SDS011;51514;52.206;5.114;2023-09-12T10:54:06;9.57;;;5.30;;
64885;SDS011;51514;52.206;5.114;2023-09-12T11:01:35;11.43;;;6.15;;
64885;SDS011;51514;52.206;5.114;2023-09-12T11:04:44;13.38;;;9.00;;
64885;SDS011;51514;52.206;5.114;2023-09-12T11:06:53;14.73;;;7.22;;
64885;SDS011;51514;52.206;5.114;2023-09-12T11:09:23;13.05;;;8.13;;
64885;SDS011;51514;52.206;5.114;2023-09-12T11:11:56;9.85;;;7.22;;
64885;SDS011;51514;52.206;5.114;2023-09-12T11:17:34;14.93;;;8.82;;
64885;SDS011;51514;52.206;5.114;2023-09-12T11:20:12;15.15;;;7.55;;
64885;SDS011;51514;52.206;5.114;2023-09-12T11:22:45;15.43;;;8.55;;
64885;SDS011;51514;52.206;5.114;2023-09-12T11:27:45;12.15;;;7.32;;
64885;SDS011;51514;52.206;5.114;2023-09-12T11:30:11;11.38;;;7.60;;
64885;SDS011;51514;52.206;5.114;2023-09-12T11:32:37;15.85;;;9.38;;
64885;SDS011;51514;52.206;5.114;2023-09-12T11:35:06;12.98;;;7.47;;
64885;SDS011;51514;52.206;5.114;2023-09-12T11:37:32;11.07;;;7.47;;
64885;SDS011;51514;52.206;5.114;2023-09-12T11:40:00;14.30;;;7.95;;
64885;SDS011;51514;52.206;5.114;2023-09-12T11:42:26;14.20;;;7.88;;
64885;SDS011;51514;52.206;5.114;2023-09-12T11:44:51;12.05;;;7.38;;
64885;SDS011;51514;52.206;5.114;2023-09-12T11:47:17;12.15;;;7.75;;
64885;SDS011;51514;52.206;5.114;2023-09-12T11:49:43;13.10;;;7.45;;
64885;SDS011;51514;52.206;5.114;2023-09-12T11:52:11;13.35;;;8.48;;
64885;SDS011;51514;52.206;5.114;2023-09-12T11:54:38;12.43;;;7.43;;
64885;SDS011;51514;52.206;5.114;2023-09-12T11:57:07;11.25;;;7.45;;
64885;SDS011;51514;52.206;5.114;2023-09-12T11:59:38;12.52;;;7.68;;
64885;SDS011;51514;52.206;5.114;2023-09-12T12:02:07;10.68;;;7.85;;
64885;SDS011;51514;52.206;5.114;2023-09-12T12:04:33;12.80;;;8.10;;
64885;SDS011;51514;52.206;5.114;2023-09-12T12:07:00;12.15;;;7.40;;
64885;SDS011;51514;52.206;5.114;2023-09-12T12:09:26;12.27;;;7.10;;
64885;SDS011;51514;52.206;5.114;2023-09-12T12:11:52;10.70;;;7.53;;
64885;SDS011;51514;52.206;5.114;2023-09-12T12:14:17;11.48;;;7.40;;
64885;SDS011;51514;52.206;5.114;2023-09-12T12:16:44;12.48;;;7.93;;
64885;SDS011;51514;52.206;5.114;2023-09-12T12:19:11;11.20;;;7.45;;
64885;SDS011;51514;52.206;5.114;2023-09-12T12:21:39;11.33;;;7.33;;
64885;SDS011;51514;52.206;5.114;2023-09-12T12:24:07;12.23;;;7.63;;
64885;SDS011;51514;52.206;5.114;2023-09-12T12:26:35;12.90;;;7.63;;
64885;SDS011;51514;52.206;5.114;2023-09-12T12:29:01;12.18;;;7.25;;
64885;SDS011;51514;52.206;5.114;2023-09-12T12:31:27;12.38;;;8.07;;
64885;SDS011;51514;52.206;5.114;2023-09-12T12:33:53;12.65;;;7.47;;
64885;SDS011;51514;52.206;5.114;2023-09-12T12:36:19;11.05;;;7.55;;
64885;SDS011;51514;52.206;5.114;2023-09-12T12:38:46;11.75;;;7.85;;
64885;SDS011;51514;52.206;5.114;2023-09-12T12:41:16;10.68;;;7.40;;
64885;SDS011;51514;52.206;5.114;2023-09-12T12:43:48;11.73;;;8.05;;
64885;SDS011;51514;52.206;5.114;2023-09-12T12:46:14;10.43;;;7.22;;
64885;SDS011;51514;52.206;5.114;2023-09-12T12:48:42;13.85;;;8.20;;
64885;SDS011;51514;52.206;5.114;2023-09-12T12:51:20;14.05;;;7.35;;
64885;SDS011;51514;52.206;5.114;2023-09-12T12:53:48;11.98;;;7.60;;
64885;SDS011;51514;52.206;5.114;2023-09-12T12:56:18;11.23;;;7.45;;
64885;SDS011;51514;52.206;5.114;2023-09-12T12:58:49;15.70;;;7.43;;
64885;SDS011;51514;52.206;5.114;2023-09-12T13:01:20;17.95;;;7.88;;
64885;SDS011;51514;52.206;5.114;2023-09-12T13:03:46;14.48;;;8.15;;
64885;SDS011;51514;52.206;5.114;2023-09-12T13:06:14;16.50;;;8.32;;
64885;SDS011;51514;52.206;5.114;2023-09-12T13:08:40;13.73;;;8.07;;
64885;SDS011;51514;52.206;5.114;2023-09-12T13:11:09;16.38;;;8.00;;
64885;SDS011;51514;52.206;5.114;2023-09-12T13:13:35;11.82;;;7.38;;
64885;SDS011;51514;52.206;5.114;2023-09-12T13:16:02;14.70;;;7.25;;
64885;SDS011;51514;52.206;5.114;2023-09-12T13:18:31;12.32;;;7.38;;
64885;SDS011;51514;52.206;5.114;2023-09-12T13:20:57;11.30;;;7.70;;
64885;SDS011;51514;52.206;5.114;2023-09-12T13:23:23;13.48;;;8.02;;
64885;SDS011;51514;52.206;5.114;2023-09-12T13:25:49;10.10;;;7.53;;
64885;SDS011;51514;52.206;5.114;2023-09-12T13:28:15;13.23;;;8.23;;
64885;SDS011;51514;52.206;5.114;2023-09-12T13:30:40;11.40;;;7.55;;
64885;SDS011;51514;52.206;5.114;2023-09-12T13:33:06;11.25;;;7.30;;
64885;SDS011;51514;52.206;5.114;2023-09-12T13:35:31;12.98;;;7.43;;
64885;SDS011;51514;52.206;5.114;2023-09-12T13:37:57;12.20;;;7.30;;
64885;SDS011;51514;52.206;5.114;2023-09-12T13:40:22;14.15;;;7.15;;
64885;SDS011;51514;52.206;5.114;2023-09-12T13:42:47;11.40;;;7.32;;
64885;SDS011;51514;52.206;5.114;2023-09-12T13:45:13;15.35;;;9.23;;
64885;SDS011;51514;52.206;5.114;2023-09-12T13:47:38;13.25;;;9.25;;
64885;SDS011;51514;52.206;5.114;2023-09-12T13:50:04;12.88;;;9.10;;
64885;SDS011;51514;52.206;5.114;2023-09-12T13:52:30;15.77;;;9.70;;
64885;SDS011;51514;52.206;5.114;2023-09-12T13:54:55;13.80;;;10.05;;
64885;SDS011;51514;52.206;5.114;2023-09-12T13:57:21;13.27;;;9.93;;
64885;SDS011;51514;52.206;5.114;2023-09-12T13:59:46;15.68;;;9.98;;
64885;SDS011;51514;52.206;5.114;2023-09-12T14:02:12;13.65;;;8.65;;
64885;SDS011;51514;52.206;5.114;2023-09-12T14:04:37;14.18;;;9.48;;
64885;SDS011;51514;52.206;5.114;2023-09-12T14:07:03;11.73;;;8.23;;
64885;SDS011;51514;52.206;5.114;2023-09-12T14:09:28;12.77;;;9.52;;
64885;SDS011;51514;52.206;5.114;2023-09-12T14:11:54;12.45;;;8.70;;
64885;SDS011;51514;52.206;5.114;2023-09-12T14:14:19;15.57;;;9.80;;
64885;SDS011;51514;52.206;5.114;2023-09-12T14:16:45;12.77;;;8.57;;
64885;SDS011;51514;52.206;5.114;2023-09-12T14:19:10;12.82;;;8.55;;
64885;SDS011;51514;52.206;5.114;2023-09-12T14:21:36;11.82;;;8.70;;
64885;SDS011;51514;52.206;5.114;2023-09-12T14:24:02;10.68;;;8.85;;
64885;SDS011;51514;52.206;5.114;2023-09-12T14:26:28;10.52;;;8.38;;
64885;SDS011;51514;52.206;5.114;2023-09-12T14:28:53;11.98;;;8.85;;
64885;SDS011;51514;52.206;5.114;2023-09-12T14:31:20;9.93;;;6.70;;
64885;SDS011;51514;52.206;5.114;2023-09-12T14:33:47;10.15;;;7.32;;
64885;SDS011;51514;52.206;5.114;2023-09-12T14:36:13;11.05;;;7.45;;
64885;SDS011;51514;52.206;5.114;2023-09-12T14:38:38;12.38;;;7.93;;
64885;SDS011;51514;52.206;5.114;2023-09-12T14:41:04;11.20;;;7.70;;
64885;SDS011;51514;52.206;5.114;2023-09-12T14:43:29;11.52;;;7.75;;
64885;SDS011;51514;52.206;5.114;2023-09-12T14:45:55;13.32;;;7.43;;
64885;SDS011;51514;52.206;5.114;2023-09-12T14:48:20;11.18;;;7.95;;
64885;SDS011;51514;52.206;5.114;2023-09-12T14:50:46;11.55;;;8.13;;
64885;SDS011;51514;52.206;5.114;2023-09-12T14:53:14;12.23;;;7.50;;
64885;SDS011;51514;52.206;5.114;2023-09-12T14:55:41;10.05;;;7.68;;
64885;SDS011;51514;52.206;5.114;2023-09-12T14:58:06;11.57;;;8.07;;
64885;SDS011;51514;52.206;5.114;2023-09-12T15:00:32;11.40;;;8.00;;